sensor_id;sensor_type;location;lat;lon;timestamp;pressure;altitude;pressure_sealevel;temperature;humidity
61408;BME280;47274;43.054;25.146;2023-03-14T00:00:12;95658.63;;;3.39;50.94
61408;BME280;47274;43.054;25.146;2023-03-14T00:02:38;95639.91;;;3.15;51.64
61408;BME280;47274;43.054;25.146;2023-03-14T00:05:04;95676.34;;;3.26;52.25
61408;BME280;47274;43.054;25.146;2023-03-14T00:07:37;95675.19;;;3.18;53.33
61408;BME280;47274;43.054;25.146;2023-03-14T00:10:14;95673.34;;;3.07;53.72
61408;BME280;47274;43.054;25.146;2023-03-14T00:12:40;95662.38;;;3.06;52.65
61408;BME280;47274;43.054;25.146;2023-03-14T00:15:07;95651.75;;;3.01;53.11
61408;BME280;47274;43.054;25.146;2023-03-14T00:17:35;95666.50;;;3.22;52.19
61408;BME280;47274;43.054;25.146;2023-03-14T00:20:02;95653.97;;;3.06;53.27
61408;BME280;47274;43.054;25.146;2023-03-14T00:22:37;95661.59;;;3.06;53.75
61408;BME280;47274;43.054;25.146;2023-03-14T00:25:05;95660.09;;;3.16;53.10
61408;BME280;47274;43.054;25.146;2023-03-14T00:27:31;95641.91;;;3.09;53.05
61408;BME280;47274;43.054;25.146;2023-03-14T00:29:57;95633.88;;;3.03;52.82
61408;BME280;47274;43.054;25.146;2023-03-14T00:32:23;95640.91;;;3.12;52.79
61408;BME280;47274;43.054;25.146;2023-03-14T00:34:49;95630.03;;;3.10;52.84
61408;BME280;47274;43.054;25.146;2023-03-14T00:37:15;95634.03;;;3.27;51.79
61408;BME280;47274;43.054;25.146;2023-03-14T00:39:41;95615.03;;;2.94;52.55
61408;BME280;47274;43.054;25.146;2023-03-14T00:42:07;95648.00;;;3.07;53.42
61408;BME280;47274;43.054;25.146;2023-03-14T00:44:33;95607.59;;;2.91;53.11
61408;BME280;47274;43.054;25.146;2023-03-14T00:46:59;95598.63;;;2.73;53.98
61408;BME280;47274;43.054;25.146;2023-03-14T00:49:24;95629.81;;;2.88;54.10
61408;BME280;47274;43.054;25.146;2023-03-14T00:51:51;95632.66;;;2.69;54.27
61408;BME280;47274;43.054;25.146;2023-03-14T00:54:19;95591.69;;;2.35;55.14
61408;BME280;47274;43.054;25.146;2023-03-14T00:56:45;95585.56;;;2.25;54.93
61408;BME280;47274;43.054;25.146;2023-03-14T00:59:11;95626.00;;;2.26;55.72
61408;BME280;47274;43.054;25.146;2023-03-14T01:01:38;95621.09;;;2.23;55.61
61408;BME280;47274;43.054;25.146;2023-03-14T01:04:05;95624.81;;;2.18;55.95
61408;BME280;47274;43.054;25.146;2023-03-14T01:06:31;95607.22;;;2.02;55.98
61408;BME280;47274;43.054;25.146;2023-03-14T01:08:57;95608.91;;;2.01;56.53
61408;BME280;47274;43.054;25.146;2023-03-14T01:11:31;95585.06;;;1.91;56.77
61408;BME280;47274;43.054;25.146;2023-03-14T01:13:57;95582.72;;;1.88;57.09
61408;BME280;47274;43.054;25.146;2023-03-14T01:16:25;95604.94;;;2.11;57.17
61408;BME280;47274;43.054;25.146;2023-03-14T01:18:51;95588.50;;;2.04;56.99
61408;BME280;47274;43.054;25.146;2023-03-14T01:21:20;95534.03;;;1.70;56.72
61408;BME280;47274;43.054;25.146;2023-03-14T01:23:47;95571.50;;;2.06;56.63
61408;BME280;47274;43.054;25.146;2023-03-14T01:26:16;95558.47;;;1.98;56.40
61408;BME280;47274;43.054;25.146;2023-03-14T01:28:45;95563.53;;;1.98;56.47
61408;BME280;47274;43.054;25.146;2023-03-14T01:31:11;95578.28;;;2.06;56.80
61408;BME280;47274;43.054;25.146;2023-03-14T01:33:38;95582.88;;;2.13;57.00
61408;BME280;47274;43.054;25.146;2023-03-14T01:36:05;95575.00;;;2.18;55.74
61408;BME280;47274;43.054;25.146;2023-03-14T01:38:33;95535.97;;;2.08;54.96
61408;BME280;47274;43.054;25.146;2023-03-14T01:40:59;95581.94;;;2.29;55.33
61408;BME280;47274;43.054;25.146;2023-03-14T01:43:26;95565.88;;;2.16;55.35
61408;BME280;47274;43.054;25.146;2023-03-14T01:46:19;95562.38;;;2.04;56.20
61408;BME280;47274;43.054;25.146;2023-03-14T01:48:57;95557.59;;;1.99;55.67
61408;BME280;47274;43.054;25.146;2023-03-14T01:51:42;95566.78;;;2.14;56.24
61408;BME280;47274;43.054;25.146;2023-03-14T01:56:56;95566.28;;;1.81;58.95
61408;BME280;47274;43.054;25.146;2023-03-14T01:59:24;95567.94;;;1.68;59.52
61408;BME280;47274;43.054;25.146;2023-03-14T02:01:51;95552.84;;;1.66;58.51
61408;BME280;47274;43.054;25.146;2023-03-14T02:04:18;95553.28;;;1.73;58.15
61408;BME280;47274;43.054;25.146;2023-03-14T02:07:22;95558.50;;;1.84;57.54
61408;BME280;47274;43.054;25.146;2023-03-14T02:09:59;95528.72;;;1.60;57.09
61408;BME280;47274;43.054;25.146;2023-03-14T02:12:31;95563.25;;;1.61;57.87
61408;BME280;47274;43.054;25.146;2023-03-14T02:15:13;95549.50;;;1.51;58.70
61408;BME280;47274;43.054;25.146;2023-03-14T02:18:02;95570.47;;;1.68;58.34
61408;BME280;47274;43.054;25.146;2023-03-14T02:21:05;95566.13;;;1.70;57.79
61408;BME280;47274;43.054;25.146;2023-03-14T02:23:57;95573.97;;;1.65;58.02
61408;BME280;47274;43.054;25.146;2023-03-14T02:27:06;95569.38;;;1.72;57.25
61408;BME280;47274;43.054;25.146;2023-03-14T02:30:04;95561.38;;;2.06;54.39
61408;BME280;47274;43.054;25.146;2023-03-14T02:32:30;95553.22;;;2.01;54.81
61408;BME280;47274;43.054;25.146;2023-03-14T02:34:59;95568.78;;;2.09;54.60
61408;BME280;47274;43.054;25.146;2023-03-14T02:37:33;95560.03;;;1.86;55.36
61408;BME280;47274;43.054;25.146;2023-03-14T02:40:00;95557.13;;;2.07;54.70
61408;BME280;47274;43.054;25.146;2023-03-14T02:42:27;95553.94;;;2.18;53.66
61408;BME280;47274;43.054;25.146;2023-03-14T02:47:40;95573.09;;;2.49;50.98
61408;BME280;47274;43.054;25.146;2023-03-14T02:50:10;95592.03;;;2.70;47.68
61408;BME280;47274;43.054;25.146;2023-03-14T02:52:37;95562.25;;;2.74;44.87
61408;BME280;47274;43.054;25.146;2023-03-14T02:55:02;95586.56;;;3.16;43.65
61408;BME280;47274;43.054;25.146;2023-03-14T02:57:29;95571.84;;;3.34;42.41
61408;BME280;47274;43.054;25.146;2023-03-14T03:00:01;95590.22;;;3.38;42.63
61408;BME280;47274;43.054;25.146;2023-03-14T03:02:32;95567.78;;;3.31;43.54
61408;BME280;47274;43.054;25.146;2023-03-14T03:04:58;95574.91;;;3.39;43.71
61408;BME280;47274;43.054;25.146;2023-03-14T03:07:24;95582.03;;;3.60;41.65
61408;BME280;47274;43.054;25.146;2023-03-14T03:09:51;95582.19;;;3.82;41.16
61408;BME280;47274;43.054;25.146;2023-03-14T03:12:17;95583.31;;;3.91;40.88
61408;BME280;47274;43.054;25.146;2023-03-14T03:14:44;95572.53;;;3.87;41.90
61408;BME280;47274;43.054;25.146;2023-03-14T03:17:09;95560.47;;;3.78;42.30
61408;BME280;47274;43.054;25.146;2023-03-14T03:19:37;95561.91;;;3.69;43.72
61408;BME280;47274;43.054;25.146;2023-03-14T03:22:03;95545.38;;;3.64;44.06
61408;BME280;47274;43.054;25.146;2023-03-14T03:24:28;95566.66;;;3.74;44.33
61408;BME280;47274;43.054;25.146;2023-03-14T03:26:54;95568.59;;;3.70;42.94
61408;BME280;47274;43.054;25.146;2023-03-14T03:29:20;95565.06;;;3.60;43.71
61408;BME280;47274;43.054;25.146;2023-03-14T03:31:46;95544.56;;;3.50;43.43
61408;BME280;47274;43.054;25.146;2023-03-14T03:34:13;95536.75;;;3.41;43.19
61408;BME280;47274;43.054;25.146;2023-03-14T03:36:40;95546.88;;;3.28;44.17
61408;BME280;47274;43.054;25.146;2023-03-14T03:39:06;95526.91;;;2.98;45.00
61408;BME280;47274;43.054;25.146;2023-03-14T03:41:32;95515.69;;;2.62;45.84
61408;BME280;47274;43.054;25.146;2023-03-14T03:43:59;95515.00;;;2.06;49.93
61408;BME280;47274;43.054;25.146;2023-03-14T03:46:25;95535.09;;;1.80;53.03
61408;BME280;47274;43.054;25.146;2023-03-14T03:48:57;95539.91;;;1.71;54.41
61408;BME280;47274;43.054;25.146;2023-03-14T03:51:25;95546.06;;;1.52;55.55
61408;BME280;47274;43.054;25.146;2023-03-14T03:53:51;95544.28;;;1.54;55.75
61408;BME280;47274;43.054;25.146;2023-03-14T03:56:23;95523.56;;;1.19;56.83
61408;BME280;47274;43.054;25.146;2023-03-14T03:58:49;95541.66;;;1.27;57.50
61408;BME280;47274;43.054;25.146;2023-03-14T04:01:16;95517.53;;;1.07;57.45
61408;BME280;47274;43.054;25.146;2023-03-14T04:03:44;95518.69;;;1.02;58.17
61408;BME280;47274;43.054;25.146;2023-03-14T04:06:12;95529.34;;;1.07;58.91
61408;BME280;47274;43.054;25.146;2023-03-14T04:08:39;95526.13;;;0.89;59.66
61408;BME280;47274;43.054;25.146;2023-03-14T04:11:09;95508.13;;;0.65;59.80
61408;BME280;47274;43.054;25.146;2023-03-14T04:13:53;95495.31;;;0.98;57.36
61408;BME280;47274;43.054;25.146;2023-03-14T04:16:21;95493.25;;;1.48;53.62
61408;BME280;47274;43.054;25.146;2023-03-14T04:18:48;95510.41;;;1.98;51.92
61408;BME280;47274;43.054;25.146;2023-03-14T04:21:16;95482.16;;;1.92;51.66
61408;BME280;47274;43.054;25.146;2023-03-14T04:23:48;95495.94;;;2.27;50.00
61408;BME280;47274;43.054;25.146;2023-03-14T04:26:15;95490.88;;;2.67;48.57
61408;BME280;47274;43.054;25.146;2023-03-14T04:28:41;95485.72;;;2.69;48.33
61408;BME280;47274;43.054;25.146;2023-03-14T04:31:15;95500.81;;;2.83;48.09
61408;BME280;47274;43.054;25.146;2023-03-14T04:33:41;95499.00;;;2.85;47.67
61408;BME280;47274;43.054;25.146;2023-03-14T04:36:08;95467.88;;;2.83;47.75
61408;BME280;47274;43.054;25.146;2023-03-14T04:38:35;95498.41;;;2.81;48.80
61408;BME280;47274;43.054;25.146;2023-03-14T04:41:01;95478.34;;;2.38;49.94
61408;BME280;47274;43.054;25.146;2023-03-14T04:43:30;95490.69;;;2.30;50.38
61408;BME280;47274;43.054;25.146;2023-03-14T04:46:02;95473.97;;;2.01;52.01
61408;BME280;47274;43.054;25.146;2023-03-14T04:48:28;95482.38;;;2.01;52.21
61408;BME280;47274;43.054;25.146;2023-03-14T04:50:54;95491.56;;;2.17;51.78
61408;BME280;47274;43.054;25.146;2023-03-14T04:53:20;95494.22;;;2.28;50.51
61408;BME280;47274;43.054;25.146;2023-03-14T04:55:53;95480.88;;;2.38;49.37
61408;BME280;47274;43.054;25.146;2023-03-14T04:58:21;95495.13;;;2.67;49.72
61408;BME280;47274;43.054;25.146;2023-03-14T05:00:49;95469.47;;;2.58;48.90
61408;BME280;47274;43.054;25.146;2023-03-14T05:03:40;95468.47;;;2.61;48.34
61408;BME280;47274;43.054;25.146;2023-03-14T05:06:27;95480.13;;;2.76;48.88
61408;BME280;47274;43.054;25.146;2023-03-14T05:08:52;95471.84;;;2.74;47.27
61408;BME280;47274;43.054;25.146;2023-03-14T05:11:37;95494.78;;;2.98;47.27
61408;BME280;47274;43.054;25.146;2023-03-14T05:14:26;95485.34;;;3.13;45.58
61408;BME280;47274;43.054;25.146;2023-03-14T05:17:10;95503.16;;;3.37;45.34
61408;BME280;47274;43.054;25.146;2023-03-14T05:19:40;95489.16;;;3.44;44.75
61408;BME280;47274;43.054;25.146;2023-03-14T05:22:41;95487.94;;;3.50;45.67
61408;BME280;47274;43.054;25.146;2023-03-14T05:25:27;95475.59;;;3.45;46.28
61408;BME280;47274;43.054;25.146;2023-03-14T05:28:12;95447.38;;;3.37;43.08
61408;BME280;47274;43.054;25.146;2023-03-14T05:30:47;95487.75;;;3.90;43.05
61408;BME280;47274;43.054;25.146;2023-03-14T05:33:32;95486.53;;;4.19;42.74
61408;BME280;47274;43.054;25.146;2023-03-14T05:36:18;95474.13;;;4.39;41.58
61408;BME280;47274;43.054;25.146;2023-03-14T05:38:59;95470.63;;;4.64;40.20
61408;BME280;47274;43.054;25.146;2023-03-14T05:41:39;95476.97;;;5.05;39.88
61408;BME280;47274;43.054;25.146;2023-03-14T05:44:24;95470.97;;;5.39;41.55
61408;BME280;47274;43.054;25.146;2023-03-14T05:47:14;95470.88;;;5.52;40.11
61408;BME280;47274;43.054;25.146;2023-03-14T05:49:52;95480.81;;;5.55;38.39
61408;BME280;47274;43.054;25.146;2023-03-14T05:52:46;95474.81;;;5.45;36.54
61408;BME280;47274;43.054;25.146;2023-03-14T05:55:32;95484.84;;;5.35;39.21
61408;BME280;47274;43.054;25.146;2023-03-14T05:58:15;95468.88;;;5.22;38.17
61408;BME280;47274;43.054;25.146;2023-03-14T06:01:03;95449.47;;;5.10;36.89
61408;BME280;47274;43.054;25.146;2023-03-14T06:03:44;95476.50;;;5.33;36.93
61408;BME280;47274;43.054;25.146;2023-03-14T06:06:10;95467.28;;;5.32;36.87
61408;BME280;47274;43.054;25.146;2023-03-14T06:08:36;95470.16;;;5.39;36.87
61408;BME280;47274;43.054;25.146;2023-03-14T06:11:03;95468.53;;;5.49;38.28
61408;BME280;47274;43.054;25.146;2023-03-14T06:13:30;95481.84;;;5.64;37.51
61408;BME280;47274;43.054;25.146;2023-03-14T06:15:56;95422.78;;;5.27;35.02
61408;BME280;47274;43.054;25.146;2023-03-14T06:18:22;95469.44;;;5.70;36.44
61408;BME280;47274;43.054;25.146;2023-03-14T06:20:48;95478.59;;;5.73;36.13
61408;BME280;47274;43.054;25.146;2023-03-14T06:23:21;95479.84;;;5.90;36.92
61408;BME280;47274;43.054;25.146;2023-03-14T06:25:47;95472.28;;;6.11;37.82
61408;BME280;47274;43.054;25.146;2023-03-14T06:28:13;95473.47;;;6.39;36.29
61408;BME280;47274;43.054;25.146;2023-03-14T06:30:41;95484.59;;;6.70;36.84
61408;BME280;47274;43.054;25.146;2023-03-14T06:33:09;95442.31;;;6.35;36.43
61408;BME280;47274;43.054;25.146;2023-03-14T06:35:35;95461.28;;;6.43;37.16
61408;BME280;47274;43.054;25.146;2023-03-14T06:38:01;95454.03;;;6.59;37.79
61408;BME280;47274;43.054;25.146;2023-03-14T06:40:30;95480.69;;;7.08;37.95
61408;BME280;47274;43.054;25.146;2023-03-14T06:43:00;95467.44;;;7.24;37.37
61408;BME280;47274;43.054;25.146;2023-03-14T06:45:29;95475.31;;;7.11;37.07
61408;BME280;47274;43.054;25.146;2023-03-14T06:47:56;95464.31;;;6.89;38.85
61408;BME280;47274;43.054;25.146;2023-03-14T06:50:29;95471.94;;;7.10;37.49
61408;BME280;47274;43.054;25.146;2023-03-14T06:52:56;95448.69;;;7.34;38.89
61408;BME280;47274;43.054;25.146;2023-03-14T06:55:25;95473.59;;;7.82;37.99
61408;BME280;47274;43.054;25.146;2023-03-14T06:57:52;95468.28;;;7.65;41.03
61408;BME280;47274;43.054;25.146;2023-03-14T07:00:19;95451.59;;;7.20;39.39
61408;BME280;47274;43.054;25.146;2023-03-14T07:02:45;95454.31;;;7.59;39.20
61408;BME280;47274;43.054;25.146;2023-03-14T07:05:23;95453.19;;;8.02;36.64
61408;BME280;47274;43.054;25.146;2023-03-14T07:07:48;95438.16;;;8.18;38.11
61408;BME280;47274;43.054;25.146;2023-03-14T07:10:16;95429.78;;;7.97;38.81
61408;BME280;47274;43.054;25.146;2023-03-14T07:12:42;95435.31;;;7.52;40.26
61408;BME280;47274;43.054;25.146;2023-03-14T07:15:08;95448.56;;;7.05;42.31
61408;BME280;47274;43.054;25.146;2023-03-14T07:17:34;95450.69;;;6.58;41.52
61408;BME280;47274;43.054;25.146;2023-03-14T07:19:59;95435.69;;;6.44;43.90
61408;BME280;47274;43.054;25.146;2023-03-14T07:22:26;95429.22;;;6.19;42.35
61408;BME280;47274;43.054;25.146;2023-03-14T07:24:52;95434.41;;;6.50;40.48
61408;BME280;47274;43.054;25.146;2023-03-14T07:27:20;95424.13;;;6.40;36.09
61408;BME280;47274;43.054;25.146;2023-03-14T07:29:47;95418.78;;;6.43;35.87
61408;BME280;47274;43.054;25.146;2023-03-14T07:32:13;95416.00;;;6.46;36.56
61408;BME280;47274;43.054;25.146;2023-03-14T07:34:41;95419.28;;;6.79;34.59
61408;BME280;47274;43.054;25.146;2023-03-14T07:37:07;95422.31;;;6.94;36.15
61408;BME280;47274;43.054;25.146;2023-03-14T07:39:33;95423.66;;;7.19;35.53
61408;BME280;47274;43.054;25.146;2023-03-14T07:42:15;95417.19;;;7.55;35.82
61408;BME280;47274;43.054;25.146;2023-03-14T07:45:13;95430.19;;;8.02;35.21
61408;BME280;47274;43.054;25.146;2023-03-14T07:47:38;95414.59;;;8.05;34.12
61408;BME280;47274;43.054;25.146;2023-03-14T07:50:05;95425.72;;;8.91;34.79
61408;BME280;47274;43.054;25.146;2023-03-14T07:52:31;95421.72;;;9.26;34.84
61408;BME280;47274;43.054;25.146;2023-03-14T07:54:56;95414.28;;;9.33;35.30
61408;BME280;47274;43.054;25.146;2023-03-14T07:57:22;95408.75;;;9.37;33.63
61408;BME280;47274;43.054;25.146;2023-03-14T07:59:49;95396.63;;;9.85;33.16
61408;BME280;47274;43.054;25.146;2023-03-14T08:02:18;95397.56;;;10.29;31.10
61408;BME280;47274;43.054;25.146;2023-03-14T08:04:47;95404.38;;;11.08;32.65
61408;BME280;47274;43.054;25.146;2023-03-14T08:07:14;95414.16;;;11.39;31.19
61408;BME280;47274;43.054;25.146;2023-03-14T08:09:40;95409.78;;;11.74;32.22
61408;BME280;47274;43.054;25.146;2023-03-14T08:12:06;95410.44;;;12.35;30.62
61408;BME280;47274;43.054;25.146;2023-03-14T08:14:32;95405.56;;;12.07;28.67
61408;BME280;47274;43.054;25.146;2023-03-14T08:16:58;95399.31;;;12.18;30.77
61408;BME280;47274;43.054;25.146;2023-03-14T08:19:24;95414.75;;;12.99;30.75
61408;BME280;47274;43.054;25.146;2023-03-14T08:21:50;95399.31;;;12.50;30.41
61408;BME280;47274;43.054;25.146;2023-03-14T08:24:16;95404.72;;;13.21;30.95
61408;BME280;47274;43.054;25.146;2023-03-14T08:26:41;95414.25;;;13.04;28.41
61408;BME280;47274;43.054;25.146;2023-03-14T08:29:07;95393.34;;;13.55;26.90
61408;BME280;47274;43.054;25.146;2023-03-14T08:31:36;95402.50;;;13.96;29.74
61408;BME280;47274;43.054;25.146;2023-03-14T08:34:02;95402.09;;;14.08;27.06
61408;BME280;47274;43.054;25.146;2023-03-14T08:36:29;95409.38;;;13.17;27.10
61408;BME280;47274;43.054;25.146;2023-03-14T08:38:54;95384.03;;;14.08;26.76
61408;BME280;47274;43.054;25.146;2023-03-14T08:41:20;95376.22;;;14.39;29.51
61408;BME280;47274;43.054;25.146;2023-03-14T08:43:46;95394.44;;;16.02;29.51
61408;BME280;47274;43.054;25.146;2023-03-14T08:46:11;95383.56;;;17.05;28.43
61408;BME280;47274;43.054;25.146;2023-03-14T08:48:37;95398.63;;;17.99;27.74
61408;BME280;47274;43.054;25.146;2023-03-14T08:51:11;95389.72;;;18.42;27.36
61408;BME280;47274;43.054;25.146;2023-03-14T08:53:38;95399.19;;;18.76;26.89
61408;BME280;47274;43.054;25.146;2023-03-14T08:56:04;95398.53;;;19.14;27.01
61408;BME280;47274;43.054;25.146;2023-03-14T08:58:32;95378.13;;;19.11;26.12
61408;BME280;47274;43.054;25.146;2023-03-14T09:00:58;95403.06;;;19.52;26.37
61408;BME280;47274;43.054;25.146;2023-03-14T09:03:25;95392.88;;;19.50;25.25
61408;BME280;47274;43.054;25.146;2023-03-14T09:05:51;95398.78;;;19.84;25.31
61408;BME280;47274;43.054;25.146;2023-03-14T09:08:17;95382.19;;;20.17;24.03
61408;BME280;47274;43.054;25.146;2023-03-14T09:10:43;95358.66;;;19.98;24.88
61408;BME280;47274;43.054;25.146;2023-03-14T09:13:09;95374.16;;;20.25;23.35
61408;BME280;47274;43.054;25.146;2023-03-14T09:15:35;95364.44;;;20.07;24.38
61408;BME280;47274;43.054;25.146;2023-03-14T09:18:01;95373.28;;;20.38;24.37
61408;BME280;47274;43.054;25.146;2023-03-14T09:20:27;95357.56;;;20.76;23.21
61408;BME280;47274;43.054;25.146;2023-03-14T09:22:53;95355.16;;;20.99;22.59
61408;BME280;47274;43.054;25.146;2023-03-14T09:25:19;95351.59;;;21.37;23.12
61408;BME280;47274;43.054;25.146;2023-03-14T09:27:44;95352.66;;;21.48;22.46
61408;BME280;47274;43.054;25.146;2023-03-14T09:30:10;95337.13;;;21.53;23.19
61408;BME280;47274;43.054;25.146;2023-03-14T09:32:36;95342.94;;;21.37;22.02
61408;BME280;47274;43.054;25.146;2023-03-14T09:35:03;95338.09;;;20.97;20.90
61408;BME280;47274;43.054;25.146;2023-03-14T09:37:29;95337.69;;;20.75;21.54
61408;BME280;47274;43.054;25.146;2023-03-14T09:39:55;95318.13;;;20.66;22.38
61408;BME280;47274;43.054;25.146;2023-03-14T09:42:26;95334.34;;;21.29;21.82
61408;BME280;47274;43.054;25.146;2023-03-14T09:47:20;95302.81;;;21.31;22.01
61408;BME280;47274;43.054;25.146;2023-03-14T09:49:48;95311.78;;;22.02;23.00
61408;BME280;47274;43.054;25.146;2023-03-14T09:52:26;95326.50;;;22.57;21.97
61408;BME280;47274;43.054;25.146;2023-03-14T09:55:06;95320.25;;;22.81;20.28
61408;BME280;47274;43.054;25.146;2023-03-14T09:57:36;95297.97;;;21.53;21.12
61408;BME280;47274;43.054;25.146;2023-03-14T10:00:06;95312.81;;;21.71;20.56
61408;BME280;47274;43.054;25.146;2023-03-14T10:02:42;95306.22;;;21.98;20.83
61408;BME280;47274;43.054;25.146;2023-03-14T10:05:15;95315.22;;;21.84;21.79
61408;BME280;47274;43.054;25.146;2023-03-14T10:07:41;95302.06;;;21.79;22.99
61408;BME280;47274;43.054;25.146;2023-03-14T10:10:13;95298.97;;;22.54;21.15
61408;BME280;47274;43.054;25.146;2023-03-14T10:12:41;95297.03;;;22.85;20.90
61408;BME280;47274;43.054;25.146;2023-03-14T10:15:13;95291.69;;;23.03;21.46
61408;BME280;47274;43.054;25.146;2023-03-14T10:17:50;95272.47;;;22.98;21.15
61408;BME280;47274;43.054;25.146;2023-03-14T10:20:36;95277.72;;;23.38;20.23
61408;BME280;47274;43.054;25.146;2023-03-14T10:23:06;95282.47;;;23.12;21.30
61408;BME280;47274;43.054;25.146;2023-03-14T10:25:35;95271.09;;;23.07;20.68
61408;BME280;47274;43.054;25.146;2023-03-14T10:28:03;95272.00;;;23.01;21.54
61408;BME280;47274;43.054;25.146;2023-03-14T10:33:30;95265.47;;;23.27;20.52
61408;BME280;47274;43.054;25.146;2023-03-14T10:36:02;95249.16;;;23.65;21.10
61408;BME280;47274;43.054;25.146;2023-03-14T10:38:31;95248.22;;;23.02;19.01
61408;BME280;47274;43.054;25.146;2023-03-14T10:40:57;95242.41;;;22.88;21.75
61408;BME280;47274;43.054;25.146;2023-03-14T10:45:58;95217.59;;;23.72;21.18
61408;BME280;47274;43.054;25.146;2023-03-14T10:48:33;95229.03;;;24.11;19.57
61408;BME280;47274;43.054;25.146;2023-03-14T10:51:06;95213.34;;;23.54;20.82
61408;BME280;47274;43.054;25.146;2023-03-14T10:53:42;95208.53;;;22.93;20.47
61408;BME280;47274;43.054;25.146;2023-03-14T10:56:14;95204.22;;;23.56;21.09
61408;BME280;47274;43.054;25.146;2023-03-14T10:58:46;95188.00;;;23.14;21.81
61408;BME280;47274;43.054;25.146;2023-03-14T11:01:49;95185.72;;;23.46;21.24
61408;BME280;47274;43.054;25.146;2023-03-14T11:04:31;95173.31;;;23.13;20.91
61408;BME280;47274;43.054;25.146;2023-03-14T11:12:27;95166.31;;;23.30;20.93
61408;BME280;47274;43.054;25.146;2023-03-14T11:14:58;95161.66;;;23.78;21.76
61408;BME280;47274;43.054;25.146;2023-03-14T11:17:30;95148.38;;;24.01;21.39
61408;BME280;47274;43.054;25.146;2023-03-14T11:25:06;95130.69;;;24.47;21.04
61408;BME280;47274;43.054;25.146;2023-03-14T11:32:44;95110.59;;;23.35;22.67
61408;BME280;47274;43.054;25.146;2023-03-14T11:37:55;95100.34;;;23.16;22.09
61408;BME280;47274;43.054;25.146;2023-03-14T11:40:23;95097.28;;;23.36;22.00
61408;BME280;47274;43.054;25.146;2023-03-14T11:45:38;95089.81;;;23.74;21.58
61408;BME280;47274;43.054;25.146;2023-03-14T11:48:07;95079.03;;;23.41;22.22
61408;BME280;47274;43.054;25.146;2023-03-14T11:50:37;95072.63;;;23.04;20.56
61408;BME280;47274;43.054;25.146;2023-03-14T11:53:04;95064.09;;;23.08;21.21
61408;BME280;47274;43.054;25.146;2023-03-14T11:55:34;95056.88;;;22.87;21.94
61408;BME280;47274;43.054;25.146;2023-03-14T12:00:45;95047.38;;;23.60;21.10
61408;BME280;47274;43.054;25.146;2023-03-14T12:13:16;95042.66;;;21.90;18.83
61408;BME280;47274;43.054;25.146;2023-03-14T12:16:00;95022.53;;;21.20;19.31
61408;BME280;47274;43.054;25.146;2023-03-14T12:18:30;95011.28;;;20.78;19.22
61408;BME280;47274;43.054;25.146;2023-03-14T12:20:57;95003.63;;;20.95;19.93
61408;BME280;47274;43.054;25.146;2023-03-14T12:23:23;95005.28;;;21.31;18.52
61408;BME280;47274;43.054;25.146;2023-03-14T12:26:05;95001.09;;;21.77;20.80
61408;BME280;47274;43.054;25.146;2023-03-14T12:28:32;94996.19;;;21.10;21.14
61408;BME280;47274;43.054;25.146;2023-03-14T12:31:02;94980.75;;;21.91;19.43
61408;BME280;47274;43.054;25.146;2023-03-14T12:34:00;94978.19;;;20.78;18.99
61408;BME280;47274;43.054;25.146;2023-03-14T12:37:10;94970.72;;;19.85;20.39
61408;BME280;47274;43.054;25.146;2023-03-14T12:46:59;94961.41;;;19.34;19.99
61408;BME280;47274;43.054;25.146;2023-03-14T12:49:31;94956.19;;;19.34;18.70
61408;BME280;47274;43.054;25.146;2023-03-14T12:52:00;94955.47;;;20.07;19.97
61408;BME280;47274;43.054;25.146;2023-03-14T13:00:00;94952.22;;;19.93;20.83
61408;BME280;47274;43.054;25.146;2023-03-14T13:02:26;94956.63;;;20.11;18.81
61408;BME280;47274;43.054;25.146;2023-03-14T13:05:03;94920.97;;;19.93;19.34
61408;BME280;47274;43.054;25.146;2023-03-14T13:07:34;94950.81;;;20.27;19.29
61408;BME280;47274;43.054;25.146;2023-03-14T13:12:27;94934.09;;;19.43;18.28
61408;BME280;47274;43.054;25.146;2023-03-14T13:14:56;94934.38;;;18.60;18.79
61408;BME280;47274;43.054;25.146;2023-03-14T13:17:25;94926.63;;;18.85;19.75
61408;BME280;47274;43.054;25.146;2023-03-14T13:20:02;94924.53;;;19.18;19.25
61408;BME280;47274;43.054;25.146;2023-03-14T13:22:31;94916.50;;;19.82;19.94
61408;BME280;47274;43.054;25.146;2023-03-14T13:25:05;94918.06;;;19.46;18.76
61408;BME280;47274;43.054;25.146;2023-03-14T13:27:32;94907.13;;;18.06;19.82
61408;BME280;47274;43.054;25.146;2023-03-14T13:29:58;94903.53;;;18.70;22.00
61408;BME280;47274;43.054;25.146;2023-03-14T13:32:28;94905.28;;;19.01;20.92
61408;BME280;47274;43.054;25.146;2023-03-14T13:34:57;94897.91;;;18.73;21.28
61408;BME280;47274;43.054;25.146;2023-03-14T13:37:24;94891.66;;;18.49;21.38
61408;BME280;47274;43.054;25.146;2023-03-14T13:39:50;94886.00;;;17.95;21.47
61408;BME280;47274;43.054;25.146;2023-03-14T13:42:16;94881.59;;;17.96;21.74
61408;BME280;47274;43.054;25.146;2023-03-14T13:44:42;94890.06;;;17.71;21.39
61408;BME280;47274;43.054;25.146;2023-03-14T13:47:14;94876.09;;;18.17;21.83
61408;BME280;47274;43.054;25.146;2023-03-14T13:49:40;94876.41;;;18.28;20.77
61408;BME280;47274;43.054;25.146;2023-03-14T13:52:22;94877.13;;;18.10;21.35
61408;BME280;47274;43.054;25.146;2023-03-14T13:54:47;94872.56;;;18.05;20.48
61408;BME280;47274;43.054;25.146;2023-03-14T13:57:14;94877.34;;;17.50;20.78
61408;BME280;47274;43.054;25.146;2023-03-14T13:59:40;94874.59;;;17.45;21.12
61408;BME280;47274;43.054;25.146;2023-03-14T14:02:15;94866.13;;;16.98;22.22
61408;BME280;47274;43.054;25.146;2023-03-14T14:04:40;94860.53;;;17.08;22.04
61408;BME280;47274;43.054;25.146;2023-03-14T14:07:10;94860.56;;;16.74;22.14
61408;BME280;47274;43.054;25.146;2023-03-14T14:09:39;94837.63;;;16.38;22.10
61408;BME280;47274;43.054;25.146;2023-03-14T14:12:06;94847.00;;;16.66;23.02
61408;BME280;47274;43.054;25.146;2023-03-14T14:14:40;94843.22;;;16.62;22.81